Crescent Beach, Florida
Current Conditions -  °F | °C
As of 1:53 AM on Saturday 25 Oct 2014 (Local Time) from KSRQ Reporting Station
Clear Clear  
Wind Chill: 64°   Ceiling: Unl
Heat Index: 64°   Visibility: 10mi
Dew Point: 58°   Wind: 5mph
Humidity: 80%   Direction: 30°NNE
Pressure: 29.95"   Gusts: NA
Location:  27.2613°N, 82.5431°W
Report Text: KSRQ 250553Z 03004KT 10SM CLR 18/14 A2995 RMK AO2 SLP142 T01780144 10222 20178 55001
Loading
Personal Weather Stations






























Interactive Weather Map
Tropical Storm Tracking
New forecast layout! Learn more

10-Day Weather Forecast

Advertisements
Track Severe Weather on mobile